Terminal Aerodrome Forecast
Issued by NWS

Current Version | Previous Version | Text Only | Print | Product List | Glossary On
Versions: 1 2 3 4 5 6 7 8 9 10 11 12 13 14 15
441
FTUS43 KSGF 241720
TAFBBG
TAF
KBBG 241720Z 2418/2518 VRB03KT P6SM SCT070
     FM241900 VRB03KT P6SM VCTS SCT050CB BKN080
     FM250300 VRB03KT P6SM BKN250
     FM251000 00000KT P6SM BKN250=

USA.gov is the U.S. government's official web portal to all federal, state and local government web resources and services.